sensor_id;sensor_type;location;lat;lon;timestamp;temperature;humidity
22716;DHT22;11525;51.152;4.456;2022-09-03T00:00:50;19.80;75.50
22716;DHT22;11525;51.152;4.456;2022-09-03T00:06:11;19.70;76.60
22716;DHT22;11525;51.152;4.456;2022-09-03T00:09:02;19.70;76.60
22716;DHT22;11525;51.152;4.456;2022-09-03T00:11:34;19.60;77.00
22716;DHT22;11525;51.152;4.456;2022-09-03T00:14:18;19.90;76.40
22716;DHT22;11525;51.152;4.456;2022-09-03T00:16:55;19.70;76.60
22716;DHT22;11525;51.152;4.456;2022-09-03T00:19:29;19.60;77.60
22716;DHT22;11525;51.152;4.456;2022-09-03T00:22:01;19.50;78.30
22716;DHT22;11525;51.152;4.456;2022-09-03T00:24:37;19.50;78.40
22716;DHT22;11525;51.152;4.456;2022-09-03T00:27:07;19.50;78.70
22716;DHT22;11525;51.152;4.456;2022-09-03T00:29:42;19.50;78.80
22716;DHT22;11525;51.152;4.456;2022-09-03T00:32:18;19.60;78.40
22716;DHT22;11525;51.152;4.456;2022-09-03T00:34:55;19.50;78.90
22716;DHT22;11525;51.152;4.456;2022-09-03T00:37:22;19.40;79.60
22716;DHT22;11525;51.152;4.456;2022-09-03T00:39:48;19.30;80.50
22716;DHT22;11525;51.152;4.456;2022-09-03T00:48:24;19.30;81.40
22716;DHT22;11525;51.152;4.456;2022-09-03T00:54:04;19.30;81.80
22716;DHT22;11525;51.152;4.456;2022-09-03T00:59:52;19.50;81.00
22716;DHT22;11525;51.152;4.456;2022-09-03T01:05:10;19.20;82.40
22716;DHT22;11525;51.152;4.456;2022-09-03T01:07:50;19.10;82.90
22716;DHT22;11525;51.152;4.456;2022-09-03T01:26:20;19.10;84.70
22716;DHT22;11525;51.152;4.456;2022-09-03T01:31:37;19.00;85.30
22716;DHT22;11525;51.152;4.456;2022-09-03T01:42:28;18.90;86.80
22716;DHT22;11525;51.152;4.456;2022-09-03T01:47:52;18.70;88.10
22716;DHT22;11525;51.152;4.456;2022-09-03T01:50:45;18.70;88.30
22716;DHT22;11525;51.152;4.456;2022-09-03T02:01:40;18.60;89.50
22716;DHT22;11525;51.152;4.456;2022-09-03T02:04:19;18.60;89.60
22716;DHT22;11525;51.152;4.456;2022-09-03T02:06:48;18.60;90.10
22716;DHT22;11525;51.152;4.456;2022-09-03T02:09:16;18.50;90.30
22716;DHT22;11525;51.152;4.456;2022-09-03T02:11:43;18.60;90.20
22716;DHT22;11525;51.152;4.456;2022-09-03T02:14:11;18.50;90.60
22716;DHT22;11525;51.152;4.456;2022-09-03T02:16:38;18.60;90.50
22716;DHT22;11525;51.152;4.456;2022-09-03T02:19:07;18.50;90.80
22716;DHT22;11525;51.152;4.456;2022-09-03T02:21:38;18.60;90.60
22716;DHT22;11525;51.152;4.456;2022-09-03T02:24:05;18.60;90.60
22716;DHT22;11525;51.152;4.456;2022-09-03T02:26:32;18.60;90.80
22716;DHT22;11525;51.152;4.456;2022-09-03T02:28:58;18.60;90.90
22716;DHT22;11525;51.152;4.456;2022-09-03T02:31:25;18.60;91.00
22716;DHT22;11525;51.152;4.456;2022-09-03T02:33:54;18.70;90.90
22716;DHT22;11525;51.152;4.456;2022-09-03T02:36:29;18.60;91.10
22716;DHT22;11525;51.152;4.456;2022-09-03T02:38:56;18.50;91.50
22716;DHT22;11525;51.152;4.456;2022-09-03T02:41:22;18.50;91.70
22716;DHT22;11525;51.152;4.456;2022-09-03T02:43:58;18.50;91.60
22716;DHT22;11525;51.152;4.456;2022-09-03T02:46:48;18.40;91.70
22716;DHT22;11525;51.152;4.456;2022-09-03T02:49:18;18.40;92.20
22716;DHT22;11525;51.152;4.456;2022-09-03T02:51:44;18.30;92.50
22716;DHT22;11525;51.152;4.456;2022-09-03T02:54:11;18.30;92.70
22716;DHT22;11525;51.152;4.456;2022-09-03T02:56:37;18.40;92.80
22716;DHT22;11525;51.152;4.456;2022-09-03T02:59:04;18.40;92.80
22716;DHT22;11525;51.152;4.456;2022-09-03T03:01:30;18.50;92.70
22716;DHT22;11525;51.152;4.456;2022-09-03T03:03:56;18.50;92.70
22716;DHT22;11525;51.152;4.456;2022-09-03T03:06:22;18.50;92.70
22716;DHT22;11525;51.152;4.456;2022-09-03T03:08:48;18.40;92.80
22716;DHT22;11525;51.152;4.456;2022-09-03T03:11:15;18.50;92.90
22716;DHT22;11525;51.152;4.456;2022-09-03T03:13:43;18.40;93.00
22716;DHT22;11525;51.152;4.456;2022-09-03T03:16:10;18.40;93.00
22716;DHT22;11525;51.152;4.456;2022-09-03T03:18:36;18.40;93.10
22716;DHT22;11525;51.152;4.456;2022-09-03T03:21:06;18.60;93.10
22716;DHT22;11525;51.152;4.456;2022-09-03T03:23:33;18.50;93.30
22716;DHT22;11525;51.152;4.456;2022-09-03T03:26:04;18.40;93.50
22716;DHT22;11525;51.152;4.456;2022-09-03T03:28:31;18.40;93.60
22716;DHT22;11525;51.152;4.456;2022-09-03T03:31:25;18.50;93.40
22716;DHT22;11525;51.152;4.456;2022-09-03T03:33:56;18.50;93.10
22716;DHT22;11525;51.152;4.456;2022-09-03T03:36:24;18.50;93.10
22716;DHT22;11525;51.152;4.456;2022-09-03T03:38:53;18.40;93.60
22716;DHT22;11525;51.152;4.456;2022-09-03T03:41:22;18.10;94.30
22716;DHT22;11525;51.152;4.456;2022-09-03T03:43:54;18.10;94.60
22716;DHT22;11525;51.152;4.456;2022-09-03T03:46:21;18.10;94.90
22716;DHT22;11525;51.152;4.456;2022-09-03T03:48:51;18.00;95.10
22716;DHT22;11525;51.152;4.456;2022-09-03T03:51:17;18.20;95.00
22716;DHT22;11525;51.152;4.456;2022-09-03T03:53:43;18.20;94.90
22716;DHT22;11525;51.152;4.456;2022-09-03T03:56:12;18.10;95.10
22716;DHT22;11525;51.152;4.456;2022-09-03T03:58:39;18.30;95.10
22716;DHT22;11525;51.152;4.456;2022-09-03T04:01:15;18.30;94.90
22716;DHT22;11525;51.152;4.456;2022-09-03T04:03:42;18.40;94.60
22716;DHT22;11525;51.152;4.456;2022-09-03T04:06:10;18.40;94.60
22716;DHT22;11525;51.152;4.456;2022-09-03T04:08:38;18.30;95.00
22716;DHT22;11525;51.152;4.456;2022-09-03T04:11:07;18.20;95.50
22716;DHT22;11525;51.152;4.456;2022-09-03T04:13:35;18.30;95.40
22716;DHT22;11525;51.152;4.456;2022-09-03T04:16:07;18.30;95.40
22716;DHT22;11525;51.152;4.456;2022-09-03T04:18:33;18.30;95.60
22716;DHT22;11525;51.152;4.456;2022-09-03T04:21:08;18.30;95.50
22716;DHT22;11525;51.152;4.456;2022-09-03T04:23:36;18.20;95.90
22716;DHT22;11525;51.152;4.456;2022-09-03T04:26:02;18.20;96.10
22716;DHT22;11525;51.152;4.456;2022-09-03T04:28:28;18.10;96.30
22716;DHT22;11525;51.152;4.456;2022-09-03T04:30:54;18.10;96.70
22716;DHT22;11525;51.152;4.456;2022-09-03T04:33:24;18.20;96.60
22716;DHT22;11525;51.152;4.456;2022-09-03T04:35:50;18.20;96.60
22716;DHT22;11525;51.152;4.456;2022-09-03T04:38:16;18.20;96.80
22716;DHT22;11525;51.152;4.456;2022-09-03T04:40:42;18.20;96.70
22716;DHT22;11525;51.152;4.456;2022-09-03T04:43:08;18.30;96.60
22716;DHT22;11525;51.152;4.456;2022-09-03T04:45:34;18.20;96.70
22716;DHT22;11525;51.152;4.456;2022-09-03T04:48:01;18.30;96.80
22716;DHT22;11525;51.152;4.456;2022-09-03T04:50:28;18.10;97.30
22716;DHT22;11525;51.152;4.456;2022-09-03T04:52:58;18.00;97.90
22716;DHT22;11525;51.152;4.456;2022-09-03T04:55:25;18.10;97.60
22716;DHT22;11525;51.152;4.456;2022-09-03T04:57:50;18.20;97.40
22716;DHT22;11525;51.152;4.456;2022-09-03T05:00:17;18.20;97.50
22716;DHT22;11525;51.152;4.456;2022-09-03T05:02:43;18.30;97.70
22716;DHT22;11525;51.152;4.456;2022-09-03T05:05:14;18.60;97.30
22716;DHT22;11525;51.152;4.456;2022-09-03T05:07:40;18.70;96.80
22716;DHT22;11525;51.152;4.456;2022-09-03T05:10:08;18.70;96.70
22716;DHT22;11525;51.152;4.456;2022-09-03T05:12:35;18.60;96.60
22716;DHT22;11525;51.152;4.456;2022-09-03T05:15:04;18.60;96.60
22716;DHT22;11525;51.152;4.456;2022-09-03T05:17:30;18.60;96.80
22716;DHT22;11525;51.152;4.456;2022-09-03T05:19:56;18.70;96.70
22716;DHT22;11525;51.152;4.456;2022-09-03T05:22:22;18.60;96.70
22716;DHT22;11525;51.152;4.456;2022-09-03T05:24:49;18.70;97.00
22716;DHT22;11525;51.152;4.456;2022-09-03T05:27:15;18.80;96.70
22716;DHT22;11525;51.152;4.456;2022-09-03T05:29:44;18.70;96.80
22716;DHT22;11525;51.152;4.456;2022-09-03T05:32:10;18.70;96.90
22716;DHT22;11525;51.152;4.456;2022-09-03T05:34:37;18.60;97.10
22716;DHT22;11525;51.152;4.456;2022-09-03T05:37:03;18.70;96.90
22716;DHT22;11525;51.152;4.456;2022-09-03T05:39:30;18.90;96.50
22716;DHT22;11525;51.152;4.456;2022-09-03T05:41:55;19.00;96.60
22716;DHT22;11525;51.152;4.456;2022-09-03T05:44:21;19.00;96.70
22716;DHT22;11525;51.152;4.456;2022-09-03T05:46:48;19.10;96.80
22716;DHT22;11525;51.152;4.456;2022-09-03T05:49:16;19.10;97.00
22716;DHT22;11525;51.152;4.456;2022-09-03T05:51:42;19.20;96.60
22716;DHT22;11525;51.152;4.456;2022-09-03T05:54:09;19.30;96.50
22716;DHT22;11525;51.152;4.456;2022-09-03T05:56:37;19.30;96.50
22716;DHT22;11525;51.152;4.456;2022-09-03T05:59:06;19.40;96.30
22716;DHT22;11525;51.152;4.456;2022-09-03T06:01:38;19.40;96.00
22716;DHT22;11525;51.152;4.456;2022-09-03T06:04:09;19.30;96.60
22716;DHT22;11525;51.152;4.456;2022-09-03T06:06:37;19.50;95.90
22716;DHT22;11525;51.152;4.456;2022-09-03T06:09:14;19.50;95.60
22716;DHT22;11525;51.152;4.456;2022-09-03T06:11:43;19.50;95.70
22716;DHT22;11525;51.152;4.456;2022-09-03T06:14:13;19.50;95.80
22716;DHT22;11525;51.152;4.456;2022-09-03T06:16:46;19.20;96.70
22716;DHT22;11525;51.152;4.456;2022-09-03T06:19:20;19.00;97.60
22716;DHT22;11525;51.152;4.456;2022-09-03T06:21:46;18.80;97.70
22716;DHT22;11525;51.152;4.456;2022-09-03T06:24:17;18.70;98.30
22716;DHT22;11525;51.152;4.456;2022-09-03T06:26:43;18.90;98.10
22716;DHT22;11525;51.152;4.456;2022-09-03T06:29:10;18.90;98.30
22716;DHT22;11525;51.152;4.456;2022-09-03T06:31:37;18.90;98.40
22716;DHT22;11525;51.152;4.456;2022-09-03T06:34:04;18.60;98.90
22716;DHT22;11525;51.152;4.456;2022-09-03T06:36:30;18.70;99.40
22716;DHT22;11525;51.152;4.456;2022-09-03T06:38:57;18.60;99.90
22716;DHT22;11525;51.152;4.456;2022-09-03T06:41:25;18.30;99.90
22716;DHT22;11525;51.152;4.456;2022-09-03T06:43:57;18.00;99.90
22716;DHT22;11525;51.152;4.456;2022-09-03T06:46:26;17.70;99.90
22716;DHT22;11525;51.152;4.456;2022-09-03T06:48:51;17.90;99.90
22716;DHT22;11525;51.152;4.456;2022-09-03T06:51:23;17.70;99.90
22716;DHT22;11525;51.152;4.456;2022-09-03T06:53:51;17.50;99.90
22716;DHT22;11525;51.152;4.456;2022-09-03T06:56:20;17.20;99.90
22716;DHT22;11525;51.152;4.456;2022-09-03T06:59:04;17.10;99.90
22716;DHT22;11525;51.152;4.456;2022-09-03T07:01:31;17.10;99.90
22716;DHT22;11525;51.152;4.456;2022-09-03T07:04:00;17.30;99.90
22716;DHT22;11525;51.152;4.456;2022-09-03T07:06:28;17.30;99.90
22716;DHT22;11525;51.152;4.456;2022-09-03T07:08:54;17.30;99.90
22716;DHT22;11525;51.152;4.456;2022-09-03T07:11:23;17.50;99.90
22716;DHT22;11525;51.152;4.456;2022-09-03T07:13:52;17.80;99.90
22716;DHT22;11525;51.152;4.456;2022-09-03T07:16:31;18.00;99.90
22716;DHT22;11525;51.152;4.456;2022-09-03T07:18:57;18.30;99.90
22716;DHT22;11525;51.152;4.456;2022-09-03T07:21:27;18.80;99.90
22716;DHT22;11525;51.152;4.456;2022-09-03T07:23:54;19.10;99.90
22716;DHT22;11525;51.152;4.456;2022-09-03T07:26:31;19.20;99.90
22716;DHT22;11525;51.152;4.456;2022-09-03T07:28:58;19.10;99.90
22716;DHT22;11525;51.152;4.456;2022-09-03T07:31:34;19.20;99.90
22716;DHT22;11525;51.152;4.456;2022-09-03T07:34:05;19.20;99.90
22716;DHT22;11525;51.152;4.456;2022-09-03T07:36:36;19.50;99.90
22716;DHT22;11525;51.152;4.456;2022-09-03T07:39:06;19.70;99.90
22716;DHT22;11525;51.152;4.456;2022-09-03T07:41:32;20.00;99.90
22716;DHT22;11525;51.152;4.456;2022-09-03T07:43:58;20.10;99.90
22716;DHT22;11525;51.152;4.456;2022-09-03T07:46:31;20.40;99.90
22716;DHT22;11525;51.152;4.456;2022-09-03T07:48:59;20.60;99.90
22716;DHT22;11525;51.152;4.456;2022-09-03T07:51:28;20.70;99.90
22716;DHT22;11525;51.152;4.456;2022-09-03T07:53:57;20.50;99.90
22716;DHT22;11525;51.152;4.456;2022-09-03T07:56:24;20.40;99.90
22716;DHT22;11525;51.152;4.456;2022-09-03T07:58:51;20.40;99.90
22716;DHT22;11525;51.152;4.456;2022-09-03T08:01:19;20.40;99.90
22716;DHT22;11525;51.152;4.456;2022-09-03T08:03:50;20.80;99.90
22716;DHT22;11525;51.152;4.456;2022-09-03T08:06:19;21.10;99.90
22716;DHT22;11525;51.152;4.456;2022-09-03T08:08:46;21.50;99.90
22716;DHT22;11525;51.152;4.456;2022-09-03T08:11:14;22.20;99.90
22716;DHT22;11525;51.152;4.456;2022-09-03T08:13:42;22.70;96.70
22716;DHT22;11525;51.152;4.456;2022-09-03T08:16:11;22.90;96.10
22716;DHT22;11525;51.152;4.456;2022-09-03T08:18:37;23.30;95.60
22716;DHT22;11525;51.152;4.456;2022-09-03T08:21:12;25.00;92.80
22716;DHT22;11525;51.152;4.456;2022-09-03T08:23:45;26.30;83.90
22716;DHT22;11525;51.152;4.456;2022-09-03T08:26:13;28.70;69.50
22716;DHT22;11525;51.152;4.456;2022-09-03T08:28:39;30.60;64.50
22716;DHT22;11525;51.152;4.456;2022-09-03T08:31:15;32.70;54.20
22716;DHT22;11525;51.152;4.456;2022-09-03T08:33:43;33.40;50.10
22716;DHT22;11525;51.152;4.456;2022-09-03T08:36:15;33.60;48.70
22716;DHT22;11525;51.152;4.456;2022-09-03T08:38:43;34.10;47.90
22716;DHT22;11525;51.152;4.456;2022-09-03T08:41:14;35.40;46.60
22716;DHT22;11525;51.152;4.456;2022-09-03T08:46:56;34.80;44.90
22716;DHT22;11525;51.152;4.456;2022-09-03T08:49:46;35.50;43.90
22716;DHT22;11525;51.152;4.456;2022-09-03T08:55:14;35.90;43.40
22716;DHT22;11525;51.152;4.456;2022-09-03T08:57:47;36.90;40.80
22716;DHT22;11525;51.152;4.456;2022-09-03T09:00:14;37.50;41.70
22716;DHT22;11525;51.152;4.456;2022-09-03T09:03:05;37.60;41.60
22716;DHT22;11525;51.152;4.456;2022-09-03T09:10:58;37.30;39.80
22716;DHT22;11525;51.152;4.456;2022-09-03T09:13:43;35.50;43.60
22716;DHT22;11525;51.152;4.456;2022-09-03T09:19:29;35.10;45.30
22716;DHT22;11525;51.152;4.456;2022-09-03T09:22:07;35.90;44.70
22716;DHT22;11525;51.152;4.456;2022-09-03T09:24:39;37.50;42.80
22716;DHT22;11525;51.152;4.456;2022-09-03T09:27:06;37.80;41.50
22716;DHT22;11525;51.152;4.456;2022-09-03T09:29:36;35.60;43.90
22716;DHT22;11525;51.152;4.456;2022-09-03T09:32:03;36.60;43.50
22716;DHT22;11525;51.152;4.456;2022-09-03T09:34:36;36.20;43.20
22716;DHT22;11525;51.152;4.456;2022-09-03T09:37:06;36.50;42.60
22716;DHT22;11525;51.152;4.456;2022-09-03T09:39:33;37.20;41.70
22716;DHT22;11525;51.152;4.456;2022-09-03T09:42:01;38.10;40.80
22716;DHT22;11525;51.152;4.456;2022-09-03T09:44:32;38.60;40.00
22716;DHT22;11525;51.152;4.456;2022-09-03T09:47:07;38.60;39.20
22716;DHT22;11525;51.152;4.456;2022-09-03T09:49:50;38.00;40.10
22716;DHT22;11525;51.152;4.456;2022-09-03T09:52:16;38.90;39.90
22716;DHT22;11525;51.152;4.456;2022-09-03T09:54:43;39.20;39.30
22716;DHT22;11525;51.152;4.456;2022-09-03T09:57:15;38.20;40.50
22716;DHT22;11525;51.152;4.456;2022-09-03T09:59:44;37.50;41.10
22716;DHT22;11525;51.152;4.456;2022-09-03T10:02:26;37.40;42.80
22716;DHT22;11525;51.152;4.456;2022-09-03T10:07:54;37.50;42.20
22716;DHT22;11525;51.152;4.456;2022-09-03T10:10:21;37.40;42.10
22716;DHT22;11525;51.152;4.456;2022-09-03T10:12:58;37.50;42.40
22716;DHT22;11525;51.152;4.456;2022-09-03T10:16:01;36.90;43.10
22716;DHT22;11525;51.152;4.456;2022-09-03T10:27:08;36.50;43.10
22716;DHT22;11525;51.152;4.456;2022-09-03T10:29:39;37.00;43.70
22716;DHT22;11525;51.152;4.456;2022-09-03T10:32:24;37.70;41.60
22716;DHT22;11525;51.152;4.456;2022-09-03T10:38:09;38.20;41.50
22716;DHT22;11525;51.152;4.456;2022-09-03T10:40:41;38.70;41.00
22716;DHT22;11525;51.152;4.456;2022-09-03T11:01:36;35.20;45.60
22716;DHT22;11525;51.152;4.456;2022-09-03T11:07:04;33.70;47.90
22716;DHT22;11525;51.152;4.456;2022-09-03T11:12:37;32.60;51.80
22716;DHT22;11525;51.152;4.456;2022-09-03T11:15:20;32.40;52.60
22716;DHT22;11525;51.152;4.456;2022-09-03T11:20:25;31.40;53.00
22716;DHT22;11525;51.152;4.456;2022-09-03T11:22:54;31.30;53.50
22716;DHT22;11525;51.152;4.456;2022-09-03T11:25:24;30.30;55.50
22716;DHT22;11525;51.152;4.456;2022-09-03T11:33:20;30.40;56.70
22716;DHT22;11525;51.152;4.456;2022-09-03T11:35:57;30.30;56.40
22716;DHT22;11525;51.152;4.456;2022-09-03T11:38:26;30.10;58.80
22716;DHT22;11525;51.152;4.456;2022-09-03T11:43:37;30.40;58.50
22716;DHT22;11525;51.152;4.456;2022-09-03T11:46:26;30.70;59.20
22716;DHT22;11525;51.152;4.456;2022-09-03T11:49:08;30.90;58.80
22716;DHT22;11525;51.152;4.456;2022-09-03T11:51:35;31.10;58.20
22716;DHT22;11525;51.152;4.456;2022-09-03T11:56:48;31.20;58.10
22716;DHT22;11525;51.152;4.456;2022-09-03T11:59:25;31.20;57.00
22716;DHT22;11525;51.152;4.456;2022-09-03T12:05:05;29.30;62.10
22716;DHT22;11525;51.152;4.456;2022-09-03T12:10:20;29.60;61.20
22716;DHT22;11525;51.152;4.456;2022-09-03T12:15:24;30.20;60.70
22716;DHT22;11525;51.152;4.456;2022-09-03T12:18:07;30.40;59.70
22716;DHT22;11525;51.152;4.456;2022-09-03T12:20:44;30.10;60.30
22716;DHT22;11525;51.152;4.456;2022-09-03T12:23:12;30.20;60.70
22716;DHT22;11525;51.152;4.456;2022-09-03T12:25:45;30.20;60.70
22716;DHT22;11525;51.152;4.456;2022-09-03T12:28:16;30.10;60.60
22716;DHT22;11525;51.152;4.456;2022-09-03T12:30:44;29.90;62.10
22716;DHT22;11525;51.152;4.456;2022-09-03T12:33:15;30.00;62.50
22716;DHT22;11525;51.152;4.456;2022-09-03T12:35:42;30.00;62.90
22716;DHT22;11525;51.152;4.456;2022-09-03T12:38:08;29.90;63.50
22716;DHT22;11525;51.152;4.456;2022-09-03T12:40:42;30.00;63.40
22716;DHT22;11525;51.152;4.456;2022-09-03T12:43:12;30.00;61.80
22716;DHT22;11525;51.152;4.456;2022-09-03T12:45:46;29.80;61.90
22716;DHT22;11525;51.152;4.456;2022-09-03T12:48:16;29.80;63.40
22716;DHT22;11525;51.152;4.456;2022-09-03T12:50:43;29.70;63.60
22716;DHT22;11525;51.152;4.456;2022-09-03T12:53:12;29.60;64.10
22716;DHT22;11525;51.152;4.456;2022-09-03T12:55:43;29.60;63.50
22716;DHT22;11525;51.152;4.456;2022-09-03T13:03:21;30.10;62.30
22716;DHT22;11525;51.152;4.456;2022-09-03T13:05:53;30.10;61.50
22716;DHT22;11525;51.152;4.456;2022-09-03T13:08:26;29.80;60.80
22716;DHT22;11525;51.152;4.456;2022-09-03T13:10:59;29.50;62.10
22716;DHT22;11525;51.152;4.456;2022-09-03T13:13:29;28.90;64.20
22716;DHT22;11525;51.152;4.456;2022-09-03T13:18:51;29.30;65.50
22716;DHT22;11525;51.152;4.456;2022-09-03T13:21:48;29.50;64.00
22716;DHT22;11525;51.152;4.456;2022-09-03T13:29:56;29.30;64.60
22716;DHT22;11525;51.152;4.456;2022-09-03T13:35:51;29.30;64.10
22716;DHT22;11525;51.152;4.456;2022-09-03T13:49:05;29.90;62.60
22716;DHT22;11525;51.152;4.456;2022-09-03T13:51:57;29.90;61.90
22716;DHT22;11525;51.152;4.456;2022-09-03T13:54:37;29.90;61.40
22716;DHT22;11525;51.152;4.456;2022-09-03T13:57:21;30.00;61.60
22716;DHT22;11525;51.152;4.456;2022-09-03T14:05:15;30.00;61.10
22716;DHT22;11525;51.152;4.456;2022-09-03T14:07:53;30.00;61.90
22716;DHT22;11525;51.152;4.456;2022-09-03T14:11:07;30.00;61.60
22716;DHT22;11525;51.152;4.456;2022-09-03T14:14:36;29.80;63.30
22716;DHT22;11525;51.152;4.456;2022-09-03T14:16:57;29.60;63.90
22716;DHT22;11525;51.152;4.456;2022-09-03T14:22:14;29.10;65.40
22716;DHT22;11525;51.152;4.456;2022-09-03T14:24:49;28.90;67.90
22716;DHT22;11525;51.152;4.456;2022-09-03T14:27:28;28.90;67.40
22716;DHT22;11525;51.152;4.456;2022-09-03T14:30:06;28.90;68.60
22716;DHT22;11525;51.152;4.456;2022-09-03T14:35:58;29.00;67.80
22716;DHT22;11525;51.152;4.456;2022-09-03T14:38:30;29.10;68.30
22716;DHT22;11525;51.152;4.456;2022-09-03T14:46:37;29.20;66.60
22716;DHT22;11525;51.152;4.456;2022-09-03T14:52:12;29.10;67.90
22716;DHT22;11525;51.152;4.456;2022-09-03T15:00:51;28.70;68.70
22716;DHT22;11525;51.152;4.456;2022-09-03T15:08:51;28.20;73.50
22716;DHT22;11525;51.152;4.456;2022-09-03T15:11:31;28.40;72.60
22716;DHT22;11525;51.152;4.456;2022-09-03T15:14:12;28.70;71.70
22716;DHT22;11525;51.152;4.456;2022-09-03T15:19:47;28.60;71.10
22716;DHT22;11525;51.152;4.456;2022-09-03T15:22:33;28.50;70.40
22716;DHT22;11525;51.152;4.456;2022-09-03T15:25:18;28.20;72.40
22716;DHT22;11525;51.152;4.456;2022-09-03T15:33:34;27.60;76.20
22716;DHT22;11525;51.152;4.456;2022-09-03T15:38:54;27.60;75.30
22716;DHT22;11525;51.152;4.456;2022-09-03T15:41:43;27.80;75.90
22716;DHT22;11525;51.152;4.456;2022-09-03T15:44:15;27.80;75.60
22716;DHT22;11525;51.152;4.456;2022-09-03T15:47:02;27.90;75.50
22716;DHT22;11525;51.152;4.456;2022-09-03T15:49:51;28.00;75.30
22716;DHT22;11525;51.152;4.456;2022-09-03T15:58:02;27.90;75.30
22716;DHT22;11525;51.152;4.456;2022-09-03T16:03:13;27.90;75.20
22716;DHT22;11525;51.152;4.456;2022-09-03T16:08:43;27.80;75.30
22716;DHT22;11525;51.152;4.456;2022-09-03T16:11:39;27.80;75.60
22716;DHT22;11525;51.152;4.456;2022-09-03T16:14:14;27.90;74.90
22716;DHT22;11525;51.152;4.456;2022-09-03T16:19:45;27.30;77.70
22716;DHT22;11525;51.152;4.456;2022-09-03T16:22:31;27.30;77.40
22716;DHT22;11525;51.152;4.456;2022-09-03T16:25:26;27.40;77.30
22716;DHT22;11525;51.152;4.456;2022-09-03T16:27:59;27.60;80.40
22716;DHT22;11525;51.152;4.456;2022-09-03T16:30:43;27.50;90.40
22716;DHT22;11525;51.152;4.456;2022-09-03T16:35:44;27.30;96.70
22716;DHT22;11525;51.152;4.456;2022-09-03T16:40:57;27.40;99.90
22716;DHT22;11525;51.152;4.456;2022-09-03T16:43:52;27.40;99.90
22716;DHT22;11525;51.152;4.456;2022-09-03T16:46:32;27.30;99.90
22716;DHT22;11525;51.152;4.456;2022-09-03T16:51:50;27.00;99.90
22716;DHT22;11525;51.152;4.456;2022-09-03T16:54:52;26.90;99.90
22716;DHT22;11525;51.152;4.456;2022-09-03T17:00:12;26.50;99.90
22716;DHT22;11525;51.152;4.456;2022-09-03T17:08:03;26.40;99.90
22716;DHT22;11525;51.152;4.456;2022-09-03T17:24:52;24.70;99.90
22716;DHT22;11525;51.152;4.456;2022-09-03T17:27:31;24.90;99.90
22716;DHT22;11525;51.152;4.456;2022-09-03T17:30:25;24.60;99.90
22716;DHT22;11525;51.152;4.456;2022-09-03T17:33:28;24.40;99.90
22716;DHT22;11525;51.152;4.456;2022-09-03T17:39:00;24.10;99.90
22716;DHT22;11525;51.152;4.456;2022-09-03T17:41:50;24.00;99.90
22716;DHT22;11525;51.152;4.456;2022-09-03T17:47:46;23.90;99.90
22716;DHT22;11525;51.152;4.456;2022-09-03T17:50:23;23.80;99.90
22716;DHT22;11525;51.152;4.456;2022-09-03T17:53:09;23.70;99.90
22716;DHT22;11525;51.152;4.456;2022-09-03T17:55:39;23.60;99.90
22716;DHT22;11525;51.152;4.456;2022-09-03T17:58:13;23.60;99.90
22716;DHT22;11525;51.152;4.456;2022-09-03T18:03:43;23.70;99.90
22716;DHT22;11525;51.152;4.456;2022-09-03T18:06:52;23.70;99.90
22716;DHT22;11525;51.152;4.456;2022-09-03T18:09:33;23.50;99.90
22716;DHT22;11525;51.152;4.456;2022-09-03T18:12:13;23.20;99.90
22716;DHT22;11525;51.152;4.456;2022-09-03T18:14:45;23.20;99.90
22716;DHT22;11525;51.152;4.456;2022-09-03T18:18:06;23.00;99.90
22716;DHT22;11525;51.152;4.456;2022-09-03T18:20:42;22.80;99.90
22716;DHT22;11525;51.152;4.456;2022-09-03T18:23:53;22.70;99.90
22716;DHT22;11525;51.152;4.456;2022-09-03T18:26:45;22.70;99.90
22716;DHT22;11525;51.152;4.456;2022-09-03T18:29:36;22.70;99.90
22716;DHT22;11525;51.152;4.456;2022-09-03T18:32:21;22.70;99.90
22716;DHT22;11525;51.152;4.456;2022-09-03T18:35:07;22.90;99.90
22716;DHT22;11525;51.152;4.456;2022-09-03T18:37:51;22.80;99.90
22716;DHT22;11525;51.152;4.456;2022-09-03T18:40:58;22.90;99.90
22716;DHT22;11525;51.152;4.456;2022-09-03T18:46:49;22.80;99.90
22716;DHT22;11525;51.152;4.456;2022-09-03T18:50:03;22.80;99.90
22716;DHT22;11525;51.152;4.456;2022-09-03T18:53:00;22.90;99.90
22716;DHT22;11525;51.152;4.456;2022-09-03T18:56:08;23.10;99.90
22716;DHT22;11525;51.152;4.456;2022-09-03T19:01:54;23.30;99.90
22716;DHT22;11525;51.152;4.456;2022-09-03T19:10:28;22.70;99.90
22716;DHT22;11525;51.152;4.456;2022-09-03T19:13:35;22.20;99.90
22716;DHT22;11525;51.152;4.456;2022-09-03T19:22:41;21.50;99.90
22716;DHT22;11525;51.152;4.456;2022-09-03T19:25:28;21.30;99.90
22716;DHT22;11525;51.152;4.456;2022-09-03T19:28:25;21.30;99.90
22716;DHT22;11525;51.152;4.456;2022-09-03T19:31:38;21.20;99.90
22716;DHT22;11525;51.152;4.456;2022-09-03T19:46:50;20.80;99.90
22716;DHT22;11525;51.152;4.456;2022-09-03T19:50:03;21.00;99.90
22716;DHT22;11525;51.152;4.456;2022-09-03T19:53:18;21.10;99.90
22716;DHT22;11525;51.152;4.456;2022-09-03T19:56:10;21.20;99.90
22716;DHT22;11525;51.152;4.456;2022-09-03T19:58:59;21.20;99.90
22716;DHT22;11525;51.152;4.456;2022-09-03T20:01:44;21.20;99.90
22716;DHT22;11525;51.152;4.456;2022-09-03T20:04:33;21.20;99.90
22716;DHT22;11525;51.152;4.456;2022-09-03T20:07:19;21.20;99.90
22716;DHT22;11525;51.152;4.456;2022-09-03T20:10:08;21.10;99.90
22716;DHT22;11525;51.152;4.456;2022-09-03T20:21:38;21.10;99.90
22716;DHT22;11525;51.152;4.456;2022-09-03T20:48:32;20.60;99.90
22716;DHT22;11525;51.152;4.456;2022-09-03T20:54:03;20.60;99.90
22716;DHT22;11525;51.152;4.456;2022-09-03T20:56:45;20.50;99.90
22716;DHT22;11525;51.152;4.456;2022-09-03T20:59:33;20.40;99.90
22716;DHT22;11525;51.152;4.456;2022-09-03T21:07:45;20.40;99.90
22716;DHT22;11525;51.152;4.456;2022-09-03T21:10:26;20.30;99.90
22716;DHT22;11525;51.152;4.456;2022-09-03T21:13:16;20.40;99.90
22716;DHT22;11525;51.152;4.456;2022-09-03T21:16:11;20.50;99.90
22716;DHT22;11525;51.152;4.456;2022-09-03T21:22:00;20.60;99.90
22716;DHT22;11525;51.152;4.456;2022-09-03T21:27:19;20.70;99.90
22716;DHT22;11525;51.152;4.456;2022-09-03T21:35:17;20.70;99.90
22716;DHT22;11525;51.152;4.456;2022-09-03T21:38:18;20.80;99.90
22716;DHT22;11525;51.152;4.456;2022-09-03T21:43:54;20.70;99.90
22716;DHT22;11525;51.152;4.456;2022-09-03T21:46:25;20.80;99.90
22716;DHT22;11525;51.152;4.456;2022-09-03T21:48:57;20.90;99.90
22716;DHT22;11525;51.152;4.456;2022-09-03T21:53:59;20.70;99.90
22716;DHT22;11525;51.152;4.456;2022-09-03T21:56:36;20.70;99.90
22716;DHT22;11525;51.152;4.456;2022-09-03T22:01:52;20.60;99.90
22716;DHT22;11525;51.152;4.456;2022-09-03T22:04:24;20.50;99.90